createdAt,value
2019-03-22T00:00:02.198Z,41.23
2019-03-22T00:02:35.901Z,35.75
2019-03-22T00:05:08.438Z,39.20
2019-03-22T00:07:40.557Z,38.73
2019-03-22T00:10:12.888Z,38.35
2019-03-22T00:12:44.897Z,39.18
2019-03-22T00:15:17.362Z,36.98
2019-03-22T00:17:49.337Z,35.28
2019-03-22T00:20:21.433Z,36.30
2019-03-22T00:22:53.602Z,37.80
2019-03-22T00:25:25.763Z,38.33
2019-03-22T00:27:57.751Z,39.30
2019-03-22T00:30:29.727Z,36.77
2019-03-22T00:33:01.849Z,37.75
2019-03-22T00:35:33.921Z,39.55
2019-03-22T00:38:07.140Z,33.15
2019-03-22T00:40:39.278Z,37.73
2019-03-22T00:43:11.372Z,34.98
2019-03-22T00:45:43.539Z,38.50
2019-03-22T00:48:15.727Z,38.65
2019-03-22T00:50:47.704Z,39.63
2019-03-22T00:53:19.754Z,40.25
2019-03-22T00:55:51.660Z,36.42
2019-03-22T00:58:23.743Z,37.45
2019-03-22T01:00:55.972Z,41.48
2019-03-22T01:03:28.107Z,37.25
2019-03-22T01:06:00.313Z,31.70
2019-03-22T01:08:32.397Z,34.58
2019-03-22T01:11:04.574Z,37.00
2019-03-22T01:13:36.643Z,32.35
2019-03-22T01:16:08.759Z,36.13
2019-03-22T01:18:40.951Z,36.93
2019-03-22T01:21:13.064Z,33.53
2019-03-22T01:23:45.206Z,39.75
2019-03-22T01:26:17.228Z,33.73
2019-03-22T01:28:49.373Z,36.80
2019-03-22T01:31:21.437Z,33.18
2019-03-22T01:33:53.478Z,34.55
2019-03-22T01:36:25.631Z,36.10
2019-03-22T01:38:57.470Z,35.00
2019-03-22T01:41:29.559Z,32.63
2019-03-22T01:44:01.676Z,38.13
2019-03-22T01:46:33.901Z,33.73
2019-03-22T01:49:06.230Z,31.82
2019-03-22T01:51:38.244Z,34.15
2019-03-22T01:54:10.231Z,34.08
2019-03-22T01:56:42.215Z,30.80
2019-03-22T01:59:14.326Z,30.90
2019-03-22T02:01:46.220Z,33.85
2019-03-22T02:04:18.025Z,31.57
2019-03-22T02:06:49.899Z,32.55
2019-03-22T02:09:22.161Z,32.20
2019-03-22T02:11:54.174Z,30.02
2019-03-22T02:14:26.401Z,32.78
2019-03-22T02:16:58.400Z,29.80
2019-03-22T02:19:31.367Z,30.45
2019-03-22T02:22:03.401Z,32.20
2019-03-22T02:24:35.531Z,32.75
2019-03-22T02:27:07.495Z,32.75
2019-03-22T02:29:40.568Z,36.15
2019-03-22T02:32:12.537Z,36.40
2019-03-22T02:34:44.668Z,34.50
2019-03-22T02:37:16.981Z,29.77
2019-03-22T02:39:49.114Z,29.18
2019-03-22T02:42:21.270Z,29.72
2019-03-22T02:44:53.267Z,33.73
2019-03-22T02:47:25.413Z,34.40
2019-03-22T02:49:57.591Z,32.78
2019-03-22T02:52:29.864Z,31.68
2019-03-22T02:55:01.925Z,33.25
2019-03-22T02:57:33.941Z,34.10
2019-03-22T03:00:07.181Z,33.38
2019-03-22T03:02:39.327Z,32.85
2019-03-22T03:05:11.924Z,35.15
2019-03-22T03:07:44.510Z,33.63
2019-03-22T03:10:17.995Z,34.92
2019-03-22T03:12:50.208Z,32.70
2019-03-22T03:15:22.322Z,31.55
2019-03-22T03:17:54.300Z,33.65
2019-03-22T03:20:26.642Z,32.20
2019-03-22T03:22:58.744Z,31.93
2019-03-22T03:25:31.262Z,33.25
2019-03-22T03:28:03.529Z,33.13
2019-03-22T03:30:35.718Z,33.58
2019-03-22T03:33:08.105Z,33.53
2019-03-22T03:35:40.274Z,32.78
2019-03-22T03:38:12.419Z,30.95
2019-03-22T03:40:44.833Z,34.60
2019-03-22T03:43:16.888Z,35.95
2019-03-22T03:45:48.892Z,36.17
2019-03-22T03:48:20.893Z,35.73
2019-03-22T03:50:53.117Z,32.67
2019-03-22T03:53:25.149Z,34.20
2019-03-22T03:55:57.308Z,38.00
2019-03-22T03:58:29.528Z,36.10
2019-03-22T04:01:01.642Z,33.42
2019-03-22T04:03:33.681Z,36.90
2019-03-22T04:06:05.756Z,36.23
2019-03-22T04:08:37.787Z,40.30
2019-03-22T04:11:09.907Z,35.85
2019-03-22T04:13:41.884Z,38.35
2019-03-22T04:16:13.981Z,38.65
2019-03-22T04:18:46.072Z,36.45
2019-03-22T04:21:18.326Z,37.95
2019-03-22T04:23:50.315Z,42.65
2019-03-22T04:26:22.421Z,36.10
2019-03-22T04:29:06.672Z,42.85
2019-03-22T04:31:28.051Z,40.30
2019-03-22T04:33:59.921Z,41.53
2019-03-22T04:36:32.012Z,39.10
2019-03-22T04:39:05.550Z,40.85
2019-03-22T04:41:37.653Z,35.68
2019-03-22T04:44:09.872Z,35.95
2019-03-22T04:46:44.862Z,42.48
2019-03-22T04:49:18.178Z,40.73
2019-03-22T04:51:50.555Z,39.13
2019-03-22T04:54:23.298Z,38.15
2019-03-22T04:56:57.656Z,41.05
2019-03-22T04:59:30.239Z,41.00
2019-03-22T05:02:04.811Z,43.52
2019-03-22T05:04:39.390Z,39.48
2019-03-22T05:07:11.844Z,41.75
2019-03-22T05:09:45.261Z,49.03
2019-03-22T05:12:19.898Z,46.65
2019-03-22T05:14:53.044Z,53.87
2019-03-22T05:17:25.886Z,50.78
2019-03-22T05:19:59.890Z,49.10
2019-03-22T05:22:34.139Z,45.10
2019-03-22T05:25:06.926Z,49.35
2019-03-22T05:27:42.045Z,44.53
2019-03-22T05:30:35.555Z,47.75
2019-03-22T05:33:07.382Z,48.05
2019-03-22T05:35:39.629Z,53.20
2019-03-22T05:38:11.733Z,55.38
2019-03-22T05:40:43.918Z,47.95
2019-03-22T05:43:16.083Z,50.60
2019-03-22T05:45:48.121Z,42.05
2019-03-22T05:48:19.935Z,53.68
2019-03-22T05:50:51.700Z,44.38
2019-03-22T05:53:23.685Z,48.87
2019-03-22T05:55:55.791Z,40.38
2019-03-22T05:58:28.081Z,38.33
2019-03-22T06:01:00.280Z,37.05
2019-03-22T06:03:32.537Z,43.38
2019-03-22T06:06:04.650Z,46.00
2019-03-22T06:08:36.972Z,48.00
2019-03-22T06:11:09.333Z,44.20
2019-03-22T06:13:44.231Z,48.63
2019-03-22T06:16:15.303Z,45.08
2019-03-22T06:18:47.386Z,52.10
2019-03-22T06:21:19.367Z,63.05
2019-03-22T06:23:51.438Z,69.07
2019-03-22T06:26:23.518Z,69.10
2019-03-22T06:28:55.677Z,68.20
2019-03-22T06:31:27.591Z,60.12
2019-03-22T06:33:59.766Z,51.37
2019-03-22T06:36:31.860Z,45.12
2019-03-22T06:39:05.617Z,41.15
2019-03-22T06:41:37.896Z,38.17
2019-03-22T06:44:10.022Z,44.20
2019-03-22T06:46:42.281Z,35.33
2019-03-22T06:49:14.314Z,38.25
2019-03-22T06:51:46.357Z,29.12
2019-03-22T06:54:30.684Z,33.08
2019-03-22T06:56:52.616Z,30.35
2019-03-22T06:59:24.558Z,29.27
2019-03-22T07:01:56.889Z,28.73
2019-03-22T07:04:29.151Z,28.75
2019-03-22T07:07:01.043Z,27.83
2019-03-22T07:09:34.973Z,29.18
2019-03-22T07:12:06.758Z,25.03
2019-03-22T07:14:38.790Z,26.97
2019-03-22T07:17:10.652Z,22.77
2019-03-22T07:19:42.510Z,23.43
2019-03-22T07:22:14.195Z,24.37
2019-03-22T07:24:46.214Z,27.17
2019-03-22T07:27:18.523Z,27.87
2019-03-22T07:29:50.160Z,28.27
2019-03-22T07:32:22.134Z,29.17
2019-03-22T07:34:54.175Z,25.93
2019-03-22T07:37:26.046Z,31.30
2019-03-22T07:39:57.823Z,27.47
2019-03-22T07:42:29.834Z,25.70
2019-03-22T07:45:01.620Z,25.57
2019-03-22T07:47:33.452Z,28.13
2019-03-22T07:50:05.548Z,26.63
2019-03-22T07:52:37.610Z,26.82
2019-03-22T07:55:09.710Z,24.47
2019-03-22T07:57:41.748Z,26.33
2019-03-22T08:00:13.727Z,27.17
2019-03-22T08:02:45.662Z,23.83
2019-03-22T08:05:17.432Z,26.83
2019-03-22T08:07:49.245Z,23.97
2019-03-22T08:10:21.041Z,24.63
2019-03-22T08:12:52.872Z,26.77
2019-03-22T08:15:32.589Z,24.57
2019-03-22T08:18:04.759Z,27.33
2019-03-22T08:20:38.662Z,25.97
2019-03-22T08:23:28.700Z,25.20
2019-03-22T08:26:00.573Z,24.00
2019-03-22T08:28:32.162Z,21.43
2019-03-22T08:31:05.519Z,24.30
2019-03-22T08:33:37.635Z,25.97
2019-03-22T08:36:09.898Z,22.10
2019-03-22T08:38:41.735Z,20.37
2019-03-22T08:41:13.650Z,21.13
2019-03-22T08:43:45.639Z,19.00
2019-03-22T08:46:17.481Z,19.83
2019-03-22T08:48:49.349Z,19.57
2019-03-22T08:51:21.005Z,16.30
2019-03-22T08:53:55.532Z,19.13
2019-03-22T08:56:26.152Z,18.20
2019-03-22T08:58:58.322Z,16.33
2019-03-22T09:01:30.149Z,19.87
2019-03-22T09:04:01.957Z,18.00
2019-03-22T09:06:33.928Z,14.40
2019-03-22T09:09:07.963Z,14.10
2019-03-22T09:11:40.064Z,14.23
2019-03-22T09:14:11.854Z,14.67
2019-03-22T09:16:46.463Z,15.90
2019-03-22T09:19:18.336Z,16.50
2019-03-22T09:21:49.984Z,14.20
2019-03-22T09:24:21.894Z,14.77
2019-03-22T09:26:53.663Z,13.20
2019-03-22T09:29:25.502Z,14.17
2019-03-22T09:31:57.325Z,13.27
2019-03-22T09:34:33.884Z,13.87
2019-03-22T09:37:03.159Z,13.70
2019-03-22T09:39:34.925Z,15.20
2019-03-22T09:42:06.713Z,14.20
2019-03-22T09:44:43.392Z,13.77
2019-03-22T09:47:12.240Z,25.83
2019-03-22T09:49:44.318Z,16.13
2019-03-22T09:52:16.113Z,14.13
2019-03-22T09:54:47.905Z,12.50
2019-03-22T09:57:20.058Z,13.07
2019-03-22T09:59:52.017Z,14.43
2019-03-22T10:02:23.911Z,12.10
2019-03-22T10:04:55.836Z,12.10
2019-03-22T10:07:27.736Z,20.20
2019-03-22T10:09:59.566Z,16.10
2019-03-22T10:12:31.309Z,21.37
2019-03-22T10:15:02.867Z,14.47
2019-03-22T10:17:35.786Z,14.57
2019-03-22T10:20:07.731Z,12.90
2019-03-22T10:22:39.637Z,13.00
2019-03-22T10:25:11.361Z,14.27
2019-03-22T10:27:43.238Z,11.83
2019-03-22T10:30:15.662Z,13.43
2019-03-22T10:32:47.674Z,12.83
2019-03-22T10:35:25.844Z,16.33
2019-03-22T10:38:00.440Z,11.40
2019-03-22T10:40:26.859Z,14.20
2019-03-22T10:42:58.627Z,14.07
2019-03-22T10:45:30.574Z,13.83
2019-03-22T10:48:02.748Z,11.97
2019-03-22T10:50:34.587Z,12.60
2019-03-22T10:53:06.258Z,12.53
2019-03-22T10:55:38.228Z,12.20
2019-03-22T10:58:20.348Z,12.87
2019-03-22T11:00:43.568Z,13.87
2019-03-22T11:03:16.287Z,14.27
2019-03-22T11:05:49.122Z,16.07
2019-03-22T11:08:20.919Z,13.33
2019-03-22T11:10:52.945Z,13.27
2019-03-22T11:13:24.851Z,15.80
2019-03-22T11:15:57.166Z,16.40
2019-03-22T11:18:36.981Z,13.67
2019-03-22T11:21:05.485Z,13.27
2019-03-22T11:23:36.104Z,16.47
2019-03-22T11:26:07.807Z,12.80
2019-03-22T11:28:39.526Z,17.20
2019-03-22T11:31:11.272Z,15.97
2019-03-22T11:33:43.269Z,17.87
2019-03-22T11:36:15.262Z,16.37
2019-03-22T11:38:47.109Z,13.17
2019-03-22T11:41:18.914Z,14.03
2019-03-22T11:43:50.750Z,17.60
2019-03-22T11:46:22.441Z,16.10
2019-03-22T11:48:54.380Z,15.83
2019-03-22T11:51:26.327Z,15.07
2019-03-22T11:53:58.214Z,13.00
2019-03-22T11:56:30.087Z,12.43
2019-03-22T11:59:01.856Z,13.43
2019-03-22T12:01:33.817Z,11.30
2019-03-22T12:04:05.736Z,14.17
2019-03-22T12:06:37.701Z,11.23
2019-03-22T12:09:11.297Z,12.17
2019-03-22T12:11:43.098Z,12.87
2019-03-22T12:14:15.106Z,12.77
2019-03-22T12:16:46.905Z,15.93
2019-03-22T12:19:18.788Z,13.80
2019-03-22T12:21:50.606Z,12.60
2019-03-22T12:24:22.466Z,13.03
2019-03-22T12:26:54.193Z,12.30
2019-03-22T12:29:26.077Z,12.43
2019-03-22T12:31:57.887Z,12.03
2019-03-22T12:34:29.749Z,16.50
2019-03-22T12:37:01.528Z,12.13
2019-03-22T12:39:33.446Z,12.23
2019-03-22T12:42:07.550Z,11.53
2019-03-22T12:44:39.004Z,10.93
2019-03-22T12:47:10.892Z,9.43
2019-03-22T12:49:42.691Z,11.20
2019-03-22T12:52:14.352Z,13.13
2019-03-22T12:54:46.238Z,10.23
2019-03-22T12:57:18.269Z,12.23
2019-03-22T12:59:50.003Z,36.47
2019-03-22T13:02:22.511Z,11.77
2019-03-22T13:04:54.561Z,11.43
2019-03-22T13:07:26.231Z,11.10
2019-03-22T13:09:58.252Z,12.80
2019-03-22T13:12:30.012Z,11.27
2019-03-22T13:15:01.902Z,11.23
2019-03-22T13:17:33.877Z,13.23
2019-03-22T13:20:06.705Z,10.30
2019-03-22T13:22:38.439Z,14.63
2019-03-22T13:25:10.574Z,12.20
2019-03-22T13:27:42.374Z,12.87
2019-03-22T13:30:15.650Z,12.33
2019-03-22T13:32:52.060Z,9.40
2019-03-22T13:35:20.787Z,8.83
2019-03-22T13:37:52.607Z,9.40
2019-03-22T13:40:24.760Z,11.10
2019-03-22T13:42:56.747Z,10.53
2019-03-22T13:45:28.616Z,12.00
2019-03-22T13:48:00.497Z,12.40
2019-03-22T13:50:32.558Z,8.87
2019-03-22T13:53:04.341Z,12.07
2019-03-22T13:55:36.267Z,9.47
2019-03-22T13:58:07.913Z,12.97
2019-03-22T14:00:39.745Z,18.70
2019-03-22T14:03:11.810Z,9.60
2019-03-22T14:05:44.465Z,10.60
2019-03-22T14:08:16.206Z,11.60
2019-03-22T14:10:48.203Z,10.87
2019-03-22T14:13:20.042Z,11.97
2019-03-22T14:15:52.110Z,11.47
2019-03-22T14:18:23.845Z,9.47
2019-03-22T14:20:55.713Z,7.60
2019-03-22T14:23:27.449Z,7.10
2019-03-22T14:25:59.071Z,8.27
2019-03-22T14:28:30.910Z,11.83
2019-03-22T14:31:02.632Z,18.63
2019-03-22T14:33:34.295Z,8.47
2019-03-22T14:36:06.069Z,7.97
2019-03-22T14:38:38.017Z,8.83
2019-03-22T14:41:09.860Z,8.07
2019-03-22T14:43:41.655Z,8.77
2019-03-22T14:46:13.388Z,11.63
2019-03-22T14:48:45.197Z,14.10
2019-03-22T14:51:17.275Z,9.30
2019-03-22T14:53:49.306Z,8.97
2019-03-22T14:56:20.957Z,9.30
2019-03-22T14:58:52.778Z,12.13
2019-03-22T15:01:24.481Z,10.77
2019-03-22T15:03:56.296Z,8.50
2019-03-22T15:06:28.058Z,9.23
2019-03-22T15:09:00.114Z,8.80
2019-03-22T15:11:33.552Z,12.27
2019-03-22T15:14:15.700Z,14.53
2019-03-22T15:17:18.209Z,9.73
2019-03-22T15:20:13.102Z,9.83
2019-03-22T15:23:02.420Z,12.50
2019-03-22T15:25:59.392Z,12.50
2019-03-22T15:28:59.227Z,13.80
2019-03-22T15:31:58.940Z,10.57
2019-03-22T15:34:55.068Z,18.83
2019-03-22T15:37:48.423Z,11.17
2019-03-22T15:40:20.570Z,11.77
2019-03-22T15:42:52.374Z,12.77
2019-03-22T15:45:24.134Z,13.70
2019-03-22T15:47:56.101Z,9.90
2019-03-22T15:50:27.725Z,16.57
2019-03-22T15:52:59.586Z,17.77
2019-03-22T15:55:31.644Z,17.63
2019-03-22T15:58:03.299Z,10.87
2019-03-22T16:00:35.092Z,14.87
2019-03-22T16:03:07.021Z,13.17
2019-03-22T16:05:38.890Z,11.23
2019-03-22T16:08:10.790Z,15.70
2019-03-22T16:10:42.485Z,13.33
2019-03-22T16:13:14.409Z,13.17
2019-03-22T16:15:46.238Z,14.47
2019-03-22T16:18:20.272Z,11.27
2019-03-22T16:20:59.668Z,14.90
2019-03-22T16:23:25.310Z,11.40
2019-03-22T16:25:57.083Z,19.70
2019-03-22T16:28:28.804Z,13.23
2019-03-22T16:31:00.625Z,13.13
2019-03-22T16:33:34.094Z,13.27
2019-03-22T16:36:05.907Z,14.53
2019-03-22T16:38:37.466Z,13.50
2019-03-22T16:41:09.132Z,14.83
2019-03-22T16:43:41.089Z,13.07
2019-03-22T16:46:14.196Z,13.20
2019-03-22T16:48:46.281Z,14.47
2019-03-22T16:51:18.452Z,15.50
2019-03-22T16:53:50.670Z,13.77
2019-03-22T16:56:22.698Z,16.27
2019-03-22T16:58:54.734Z,15.40
2019-03-22T17:01:26.686Z,15.90
2019-03-22T17:04:04.491Z,15.20
2019-03-22T17:06:31.872Z,15.97
2019-03-22T17:09:05.565Z,16.17
2019-03-22T17:11:37.410Z,12.07
2019-03-22T17:14:09.368Z,13.90
2019-03-22T17:16:41.332Z,14.17
2019-03-22T17:19:12.966Z,14.83
2019-03-22T17:21:44.911Z,13.90
2019-03-22T17:24:16.936Z,13.03
2019-03-22T17:26:48.860Z,17.37
2019-03-22T17:29:20.542Z,17.37
2019-03-22T17:31:52.404Z,15.97
2019-03-22T17:34:24.278Z,12.30
2019-03-22T17:36:56.102Z,14.33
2019-03-22T17:39:27.922Z,14.33
2019-03-22T17:41:59.739Z,16.47
2019-03-22T17:44:32.781Z,16.20
2019-03-22T17:47:04.592Z,13.80
2019-03-22T17:49:36.258Z,13.67
2019-03-22T17:52:08.093Z,13.77
2019-03-22T17:54:39.835Z,14.50
2019-03-22T17:57:18.565Z,13.77
2019-03-22T17:59:45.302Z,13.87
2019-03-22T18:02:17.093Z,14.77
2019-03-22T18:04:48.745Z,13.93
2019-03-22T18:07:21.478Z,18.73
2019-03-22T18:09:53.336Z,14.57
2019-03-22T18:12:26.173Z,14.87
2019-03-22T18:14:58.237Z,14.33
2019-03-22T18:17:30.987Z,16.40
2019-03-22T18:20:02.715Z,13.63
2019-03-22T18:22:34.579Z,15.73
2019-03-22T18:25:07.008Z,14.63
2019-03-22T18:27:38.897Z,14.63
2019-03-22T18:30:11.282Z,14.20
2019-03-22T18:32:43.815Z,17.03
2019-03-22T18:35:16.478Z,15.60
2019-03-22T18:37:48.476Z,17.97
2019-03-22T18:40:20.554Z,18.07
2019-03-22T18:42:52.435Z,18.97
2019-03-22T18:45:24.450Z,15.00
2019-03-22T18:47:56.318Z,20.33
2019-03-22T18:50:28.268Z,16.60
2019-03-22T18:53:00.327Z,19.83
2019-03-22T18:55:32.185Z,23.93
2019-03-22T18:58:04.079Z,28.13
2019-03-22T19:00:36.054Z,28.20
2019-03-22T19:03:07.888Z,41.33
2019-03-22T19:05:39.650Z,26.27
2019-03-22T19:08:11.461Z,33.47
2019-03-22T19:10:43.123Z,44.77
2019-03-22T19:13:15.261Z,30.07
2019-03-22T19:15:47.193Z,37.93
2019-03-22T19:18:19.092Z,33.23
2019-03-22T19:20:50.961Z,37.00
2019-03-22T19:23:22.556Z,43.23
2019-03-22T19:25:54.264Z,40.80
2019-03-22T19:28:26.154Z,36.77
2019-03-22T19:31:18.982Z,28.30
2019-03-22T19:34:53.866Z,34.93
2019-03-22T19:37:28.977Z,45.00
2019-03-22T19:40:00.749Z,40.57
2019-03-22T19:42:34.284Z,44.07
2019-03-22T19:45:07.072Z,49.10
2019-03-22T19:47:38.894Z,48.73
2019-03-22T19:50:11.275Z,46.80
2019-03-22T19:52:43.148Z,47.07
2019-03-22T19:55:16.292Z,47.90
2019-03-22T19:57:48.526Z,45.17
2019-03-22T20:00:21.914Z,55.73
2019-03-22T20:02:54.136Z,47.62
2019-03-22T20:05:31.032Z,46.65
2019-03-22T20:08:04.832Z,43.83
2019-03-22T20:10:36.845Z,52.08
2019-03-22T20:13:08.939Z,51.05
2019-03-22T20:15:41.144Z,53.75
2019-03-22T20:18:13.577Z,42.80
2019-03-22T20:20:45.444Z,50.33
2019-03-22T20:23:17.651Z,51.55
2019-03-22T20:25:49.568Z,41.30
2019-03-22T20:28:22.911Z,47.00
2019-03-22T20:30:55.205Z,45.12
2019-03-22T20:33:27.687Z,54.45
2019-03-22T20:35:59.886Z,42.78
2019-03-22T20:38:31.795Z,39.58
2019-03-22T20:41:03.754Z,42.67
2019-03-22T20:43:35.733Z,46.98
2019-03-22T20:46:07.637Z,39.90
2019-03-22T20:48:39.742Z,49.27
2019-03-22T20:51:11.727Z,57.43
2019-03-22T20:53:43.735Z,51.75
2019-03-22T20:56:15.674Z,42.70
2019-03-22T20:58:48.005Z,47.73
2019-03-22T21:01:20.222Z,47.03
2019-03-22T21:03:52.363Z,39.83
2019-03-22T21:06:24.307Z,47.00
2019-03-22T21:08:56.396Z,42.25
2019-03-22T21:11:28.706Z,44.18
2019-03-22T21:14:00.811Z,35.45
2019-03-22T21:16:32.855Z,44.75
2019-03-22T21:19:04.894Z,45.33
2019-03-22T21:21:36.935Z,47.30
2019-03-22T21:24:09.078Z,41.95
2019-03-22T21:26:41.096Z,42.80
2019-03-22T21:29:13.193Z,38.35
2019-03-22T21:31:45.198Z,33.65
2019-03-22T21:34:18.325Z,38.90
2019-03-22T21:36:50.300Z,33.78
2019-03-22T21:39:24.874Z,34.40
2019-03-22T21:41:57.086Z,26.85
2019-03-22T21:44:29.181Z,26.73
2019-03-22T21:47:01.180Z,29.57
2019-03-22T21:49:33.294Z,26.27
2019-03-22T21:52:05.361Z,23.25
2019-03-22T21:54:38.419Z,23.52
2019-03-22T21:57:10.461Z,20.00
2019-03-22T21:59:42.730Z,19.50
2019-03-22T22:02:14.916Z,22.35
2019-03-22T22:04:47.026Z,20.55
2019-03-22T22:07:19.184Z,22.95
2019-03-22T22:09:50.969Z,17.23
2019-03-22T22:12:23.122Z,16.62
2019-03-22T22:14:55.150Z,20.30
2019-03-22T22:17:27.119Z,22.52
2019-03-22T22:19:59.284Z,25.62
2019-03-22T22:22:31.450Z,20.27
2019-03-22T22:25:03.622Z,18.75
2019-03-22T22:27:35.674Z,25.30
2019-03-22T22:30:08.601Z,23.22
2019-03-22T22:32:40.824Z,20.45
2019-03-22T22:35:12.863Z,22.37
2019-03-22T22:37:45.029Z,18.77
2019-03-22T22:40:18.250Z,19.77
2019-03-22T22:42:50.057Z,18.75
2019-03-22T22:45:22.272Z,19.75
2019-03-22T22:47:54.392Z,19.60
2019-03-22T22:50:26.592Z,23.62
2019-03-22T22:52:58.806Z,23.50
2019-03-22T22:55:30.932Z,21.70
2019-03-22T22:58:03.132Z,22.00
2019-03-22T23:00:35.454Z,21.75
2019-03-22T23:03:07.934Z,25.00
2019-03-22T23:05:40.046Z,21.77
2019-03-22T23:08:12.019Z,21.42
2019-03-22T23:10:44.134Z,23.90
2019-03-22T23:13:16.239Z,24.57
2019-03-22T23:15:48.360Z,22.50
2019-03-22T23:18:20.435Z,23.18
2019-03-22T23:20:52.334Z,20.45
2019-03-22T23:23:24.434Z,26.33
2019-03-22T23:25:56.268Z,21.75
2019-03-22T23:28:28.281Z,19.57
2019-03-22T23:31:00.338Z,21.12
2019-03-22T23:33:32.228Z,23.05
2019-03-22T23:36:04.310Z,18.85
2019-03-22T23:38:36.073Z,21.12
2019-03-22T23:41:08.312Z,22.73
2019-03-22T23:43:40.098Z,20.15
2019-03-22T23:46:12.227Z,17.42
2019-03-22T23:48:44.167Z,19.90
2019-03-22T23:51:15.999Z,18.70
2019-03-22T23:53:48.106Z,18.77
2019-03-22T23:56:20.041Z,21.87
2019-03-22T23:58:52.274Z,19.57
